createdAt,value
2023-04-09T00:03:17.231Z,99.90
2023-04-09T00:08:19.371Z,99.90
2023-04-09T00:13:35.450Z,99.90
2023-04-09T00:18:41.446Z,99.90
2023-04-09T00:23:43.757Z,99.90
2023-04-09T00:28:46.102Z,99.90
2023-04-09T00:33:48.360Z,99.90
2023-04-09T00:38:51.371Z,99.90
2023-04-09T00:43:57.330Z,99.90
2023-04-09T00:48:59.921Z,99.90
2023-04-09T00:54:02.117Z,99.90
2023-04-09T00:59:05.056Z,99.90
2023-04-09T01:04:07.499Z,99.90
2023-04-09T01:09:28.580Z,99.90
2023-04-09T01:14:38.955Z,99.90
2023-04-09T01:20:09.196Z,99.90
2023-04-09T01:25:26.562Z,99.90
2023-04-09T01:30:30.122Z,99.90
2023-04-09T01:35:32.615Z,99.90
2023-04-09T01:40:35.509Z,99.90
2023-04-09T01:45:38.279Z,99.90
2023-04-09T01:50:41.279Z,99.90
2023-04-09T01:55:43.501Z,99.90
2023-04-09T02:00:48.171Z,99.90
2023-04-09T02:06:06.922Z,99.90
2023-04-09T02:11:10.844Z,99.90
2023-04-09T02:16:14.215Z,99.90
2023-04-09T02:21:16.386Z,99.90
2023-04-09T02:26:19.195Z,99.90
2023-04-09T02:31:21.327Z,99.90
2023-04-09T02:36:23.532Z,99.90
2023-04-09T02:41:26.005Z,99.90
2023-04-09T02:46:28.281Z,99.90
2023-04-09T02:51:30.452Z,99.90
2023-04-09T02:56:32.656Z,99.90
2023-04-09T03:01:35.002Z,99.90
2023-04-09T03:06:37.417Z,99.90
2023-04-09T03:11:39.652Z,99.90
2023-04-09T03:16:41.801Z,99.90
2023-04-09T03:21:44.141Z,99.90
2023-04-09T03:26:46.393Z,99.90
2023-04-09T03:31:50.325Z,99.90
2023-04-09T03:36:52.601Z,99.90
2023-04-09T03:42:01.850Z,99.90
2023-04-09T03:47:09.975Z,99.90
2023-04-09T03:52:13.671Z,99.90
2023-04-09T03:57:19.781Z,99.90
2023-04-09T04:02:27.266Z,99.90
2023-04-09T04:07:37.154Z,99.90
2023-04-09T04:12:46.801Z,99.90
2023-04-09T04:18:04.920Z,99.90
2023-04-09T04:23:20.028Z,99.90
2023-04-09T04:28:28.724Z,99.90
2023-04-09T04:33:30.848Z,99.90
2023-04-09T04:38:33.540Z,99.90
2023-04-09T04:43:38.680Z,99.90
2023-04-09T04:48:40.827Z,99.90
2023-04-09T04:53:43.367Z,99.90
2023-04-09T04:58:48.336Z,99.90
2023-04-09T05:03:53.651Z,99.90
2023-04-09T05:09:02.161Z,99.90
2023-04-09T05:14:13.280Z,99.90
2023-04-09T05:19:15.820Z,99.90
2023-04-09T05:24:19.222Z,99.90
2023-04-09T05:29:21.373Z,99.90
2023-04-09T05:34:23.563Z,99.90
2023-04-09T05:39:28.607Z,99.90
2023-04-09T05:44:33.492Z,99.90
2023-04-09T05:49:50.417Z,99.90
2023-04-09T05:54:53.315Z,99.90
2023-04-09T06:00:01.601Z,99.90
2023-04-09T06:05:04.117Z,99.90
2023-04-09T06:10:07.092Z,99.90
2023-04-09T06:15:10.362Z,99.90
2023-04-09T06:20:12.628Z,99.90
2023-04-09T06:25:14.770Z,99.90
2023-04-09T06:30:16.968Z,99.90
2023-04-09T06:35:19.021Z,99.90
2023-04-09T06:40:23.317Z,99.90
2023-04-09T06:45:25.769Z,99.90
2023-04-09T06:50:28.068Z,99.90
2023-04-09T06:55:30.307Z,99.90
2023-04-09T07:00:32.442Z,99.90
2023-04-09T07:05:34.886Z,99.90
2023-04-09T07:10:37.008Z,99.90
2023-04-09T07:15:40.586Z,99.90
2023-04-09T07:20:43.853Z,99.90
2023-04-09T07:25:46.037Z,99.90
2023-04-09T07:30:48.120Z,99.90
2023-04-09T07:35:50.373Z,99.90
2023-04-09T07:40:52.506Z,99.90
2023-04-09T07:45:54.665Z,99.90
2023-04-09T07:50:56.813Z,99.90
2023-04-09T07:55:58.846Z,99.90
2023-04-09T08:01:00.905Z,99.90
2023-04-09T08:06:03.790Z,99.90
2023-04-09T08:11:07.022Z,99.90
2023-04-09T08:16:09.178Z,99.90
2023-04-09T08:21:11.526Z,99.90
2023-04-09T08:26:13.595Z,99.90
2023-04-09T08:31:15.741Z,99.90
2023-04-09T08:36:17.905Z,99.90
2023-04-09T08:41:22.373Z,99.90
2023-04-09T08:46:26.187Z,99.90
2023-04-09T08:51:28.969Z,99.90
2023-04-09T08:56:31.556Z,99.90
2023-04-09T09:01:33.779Z,99.90
2023-04-09T09:06:41.657Z,99.90
2023-04-09T09:11:48.655Z,99.90
2023-04-09T09:16:56.912Z,99.90
2023-04-09T09:22:03.516Z,99.90
2023-04-09T09:27:05.815Z,99.90
2023-04-09T09:32:13.734Z,99.90
2023-04-09T09:37:29.073Z,99.90
2023-04-09T09:42:31.922Z,99.90
2023-04-09T09:47:35.653Z,99.90
2023-04-09T09:52:39.946Z,99.90
2023-04-09T09:57:45.031Z,99.90
2023-04-09T10:02:56.739Z,99.90
2023-04-09T10:08:01.735Z,99.90
2023-04-09T10:13:07.550Z,99.70
2023-04-09T10:18:09.614Z,98.40
2023-04-09T10:23:19.776Z,97.80
2023-04-09T10:28:23.503Z,98.20
2023-04-09T10:33:28.028Z,96.90
2023-04-09T10:38:41.370Z,95.40
2023-04-09T10:43:43.936Z,95.10
2023-04-09T10:48:46.291Z,94.60
2023-04-09T10:53:54.314Z,93.50
2023-04-09T10:58:56.389Z,93.00
2023-04-09T11:04:11.567Z,92.80
2023-04-09T11:09:13.677Z,92.80
2023-04-09T11:14:23.836Z,91.70
2023-04-09T11:19:26.334Z,92.00
2023-04-09T11:24:41.016Z,92.10
2023-04-09T11:29:43.059Z,92.00
2023-04-09T11:34:45.141Z,91.90
2023-04-09T11:39:47.239Z,91.80
2023-04-09T11:44:50.378Z,91.90
2023-04-09T11:49:53.260Z,91.50
2023-04-09T11:54:59.530Z,91.50
2023-04-09T12:00:08.973Z,91.10
2023-04-09T12:05:13.524Z,90.60
2023-04-09T12:10:16.045Z,90.40
2023-04-09T12:15:23.272Z,90.00
2023-04-09T12:20:33.621Z,87.20
2023-04-09T12:25:43.879Z,88.10
2023-04-09T12:30:46.964Z,87.70
2023-04-09T12:35:49.103Z,87.70
2023-04-09T12:40:51.250Z,87.00
2023-04-09T12:45:53.476Z,88.70
2023-04-09T12:50:55.976Z,88.60
2023-04-09T12:55:58.557Z,89.10
2023-04-09T13:01:01.420Z,88.40
2023-04-09T13:06:03.733Z,86.90
2023-04-09T13:11:05.956Z,86.40
2023-04-09T13:16:09.061Z,82.80
2023-04-09T13:21:13.105Z,83.00
2023-04-09T13:26:15.503Z,83.00
2023-04-09T13:31:18.297Z,81.50
2023-04-09T13:36:20.444Z,80.30
2023-04-09T13:41:28.362Z,81.40
2023-04-09T13:46:31.111Z,80.90
2023-04-09T13:51:34.154Z,82.20
2023-04-09T13:56:37.103Z,81.50
2023-04-09T14:01:39.363Z,82.30
2023-04-09T14:06:42.468Z,83.80
2023-04-09T14:11:44.607Z,80.30
2023-04-09T14:16:47.093Z,82.40
2023-04-09T14:21:49.336Z,83.50
2023-04-09T14:26:53.811Z,82.00
2023-04-09T14:31:57.273Z,81.50
2023-04-09T14:37:00.120Z,80.50
2023-04-09T14:42:02.263Z,81.20
2023-04-09T14:47:04.427Z,79.90
2023-04-09T14:52:06.685Z,80.90
2023-04-09T14:57:08.858Z,81.10
2023-04-09T15:02:11.335Z,82.20
2023-04-09T15:07:13.573Z,82.80
2023-04-09T15:12:15.638Z,84.00
2023-04-09T15:17:17.762Z,85.40
2023-04-09T15:22:20.819Z,86.00
2023-04-09T15:27:23.492Z,86.60
2023-04-09T15:32:25.698Z,87.40
2023-04-09T15:37:27.876Z,85.80
2023-04-09T15:42:29.917Z,86.90
2023-04-09T15:47:33.419Z,87.90
2023-04-09T15:52:35.744Z,89.40
2023-04-09T15:57:38.707Z,89.90
2023-04-09T16:02:41.113Z,89.90
2023-04-09T16:07:43.212Z,90.00
2023-04-09T16:12:45.301Z,89.90
2023-04-09T16:17:47.608Z,90.30
2023-04-09T16:22:49.721Z,90.60
2023-04-09T16:27:51.828Z,91.50
2023-04-09T16:32:53.936Z,91.80
2023-04-09T16:37:56.720Z,92.10
2023-04-09T16:42:59.055Z,92.60
2023-04-09T16:48:01.429Z,92.10
2023-04-09T16:53:04.489Z,91.70
2023-04-09T16:58:06.728Z,92.00
2023-04-09T17:03:08.966Z,92.10
2023-04-09T17:08:11.820Z,92.80
2023-04-09T17:13:14.005Z,93.70
2023-04-09T17:18:16.181Z,94.90
2023-04-09T17:23:18.256Z,95.00
2023-04-09T17:28:20.320Z,95.40
2023-04-09T17:33:22.390Z,95.50
2023-04-09T17:38:25.259Z,95.90
2023-04-09T17:43:27.401Z,96.40
2023-04-09T17:48:31.845Z,97.10
2023-04-09T17:53:34.385Z,97.70
2023-04-09T17:58:36.528Z,98.50
2023-04-09T18:03:39.696Z,99.90
2023-04-09T18:08:43.497Z,99.90
2023-04-09T18:13:45.790Z,99.90
2023-04-09T18:18:47.942Z,99.90
2023-04-09T18:23:50.035Z,99.90
2023-04-09T18:28:52.373Z,99.90
2023-04-09T18:33:54.743Z,99.90
2023-04-09T18:38:58.413Z,99.90
2023-04-09T18:44:00.845Z,99.90
2023-04-09T18:49:03.163Z,99.90
2023-04-09T18:54:05.667Z,99.90
2023-04-09T18:59:07.849Z,99.90
2023-04-09T19:04:10.634Z,99.90
2023-04-09T19:09:12.985Z,99.90
2023-04-09T19:14:15.125Z,99.90
2023-04-09T19:19:17.572Z,99.90
2023-04-09T19:24:19.631Z,99.90
2023-04-09T19:29:21.745Z,99.90
2023-04-09T19:34:23.852Z,99.90
2023-04-09T19:39:25.911Z,99.90
2023-04-09T19:44:28.030Z,99.90
2023-04-09T19:49:30.119Z,99.90
2023-04-09T19:54:35.460Z,99.90
2023-04-09T19:59:40.250Z,99.90
2023-04-09T20:04:42.622Z,99.90
2023-04-09T20:09:46.932Z,99.90
2023-04-09T20:14:50.078Z,99.90
2023-04-09T20:19:52.151Z,99.90
2023-04-09T20:24:55.527Z,99.90
2023-04-09T20:29:57.630Z,99.90
2023-04-09T20:34:59.746Z,99.90
2023-04-09T20:40:01.981Z,99.90
2023-04-09T20:45:04.793Z,99.90
2023-04-09T20:50:07.413Z,99.90
2023-04-09T20:55:10.252Z,99.90
2023-04-09T21:00:12.899Z,99.90
2023-04-09T21:05:22.728Z,99.90
2023-04-09T21:10:25.851Z,99.90
2023-04-09T21:15:27.990Z,99.90
2023-04-09T21:20:30.492Z,99.90
2023-04-09T21:25:32.622Z,99.90
2023-04-09T21:30:35.507Z,99.90
2023-04-09T21:35:37.811Z,99.90
2023-04-09T21:40:39.931Z,99.90
2023-04-09T21:45:42.239Z,99.90
2023-04-09T21:50:44.867Z,99.90
2023-04-09T21:55:47.546Z,99.90
2023-04-09T22:00:49.672Z,99.90
2023-04-09T22:05:51.806Z,99.90
2023-04-09T22:10:53.893Z,99.90
2023-04-09T22:15:56.083Z,99.90
2023-04-09T22:20:58.220Z,99.90
2023-04-09T22:26:03.523Z,99.90
2023-04-09T22:31:06.536Z,99.90
2023-04-09T22:36:08.852Z,99.90
2023-04-09T22:41:11.126Z,99.90
2023-04-09T22:46:13.232Z,99.90
2023-04-09T22:51:15.602Z,99.90
2023-04-09T22:56:17.883Z,99.90
2023-04-09T23:01:22.288Z,99.90
2023-04-09T23:06:25.547Z,99.90
2023-04-09T23:11:27.734Z,99.90
2023-04-09T23:16:29.942Z,99.90
2023-04-09T23:21:32.127Z,99.90
2023-04-09T23:26:34.204Z,99.90
2023-04-09T23:31:36.372Z,99.90
2023-04-09T23:36:38.652Z,99.90
2023-04-09T23:41:40.790Z,99.90
2023-04-09T23:46:42.885Z,99.90
2023-04-09T23:51:45.085Z,99.90
2023-04-09T23:56:47.450Z,99.90
